Lulu Pass Weather Station

This weather station provides temperature, relative humidity (RH), wind speed, gust or max wind speed, and wind direction at 10014ft near Lulu Pass at the head of Fisher Creek. This data can be used with temperature and precipitation data from the Fisher Creek SNOTEL site.

This weather station was purchased by the Friends of the Avalanche Center.

If the data has not been updated recently you can view it directly on datagarrison.com

Elevation
10014ft
Jump to table bottom
Date Time Temperature
deg F
RH, % Wind Speed Wind Gust Wind Direction
12/18/17 15:00 13.8 93 11 25 SW - 232
12/18/17 14:00 13.6 93 11 23 SW - 244
12/18/17 13:00 13.5 93 10 23 W - 257
12/18/17 12:00 14.9 93 8 21 SW - 223
12/18/17 11:00 12.4 92 8 20 SW - 211
12/18/17 10:00 10.8 92 7 16 SW - 233
12/18/17 09:00 9.8 92 6 14 SW - 239
12/18/17 08:00 9.1 91 9 18 SW - 241
12/18/17 07:00 8.7 91 9 21 SW - 230
12/18/17 06:00 8.8 91 9 21 W - 263
12/18/17 05:00 8.2 91 10 22 SW - 234
12/18/17 04:00 7.7 91 15 31 SW - 223
12/18/17 03:00 6.5 90 9 23 SW - 209
12/18/17 02:00 6.2 90 5 12 S - 188
12/18/17 01:00 5.8 90 4 12 SW - 208
12/18/17 00:00 6.1 90 5 12 SW - 219
12/17/17 23:00 5.7 90 4 9 W - 260
12/17/17 22:00 5.6 90 4 9 W - 275
12/17/17 21:00 5.6 90 5 11 W - 267
12/17/17 20:00 5.8 90 8 12 W - 292
12/17/17 19:00 6.0 90 9 13 NW - 300
12/17/17 18:00 5.7 90 9 16 W - 291
12/17/17 17:00 5.5 90 11 18 W - 279
12/17/17 16:00 5.2 90 13 18 NW - 314
12/17/17 15:00 5.1 90 13 19 NW - 317
12/17/17 14:00 4.7 90 16 24 NW - 314
12/17/17 13:00 4.2 90 18 23 NW - 309
12/17/17 12:00 3.5 90 18 22 NW - 312
12/17/17 11:00 2.3 89 13 23 NW - 303
12/17/17 10:00 2.0 89 14 17 NW - 312
12/17/17 09:00 -0.5 88 16 21 NW - 307
12/17/17 08:00 -0.5 88 14 19 NW - 309
12/17/17 07:00 0.9 88 10 15 W - 291
12/17/17 06:00 1.6 89 6 14 SW - 246
12/17/17 05:00 3.4 90 7 15 W - 274
12/17/17 04:00 3.3 90 6 15 W - 285
12/17/17 03:00 3.4 90 5 9 W - 291
12/17/17 02:00 3.8 90 3 12 W - 285
12/17/17 01:00 4.2 90 2 5 NW - 316
12/17/17 00:00 3.2 90 1 2 N - 341
12/16/17 23:00 5.1 90 2 5 NW - 326
12/16/17 22:00 5.7 90 2 3 N - 343
12/16/17 21:00 6.3 90 5 7 NW - 326
12/16/17 20:00 6.3 90 7 10 NW - 324
12/16/17 19:00 6.8 91 10 16 NW - 320
12/16/17 18:00 7.5 91 10 14 NW - 312
12/16/17 17:00 8.2 91 10 16 NW - 310
12/16/17 16:00 10.0 92 9 13 NW - 309
12/16/17 15:00 11.7 93 8 13 NW - 306
12/16/17 14:00 12.7 93 5 8 W - 289
https://datagarrison.com/users/300034012539980/300234064338030/temp/300234064338030_live.txt